Time;durP1;ratioP1;P1;durP2;ratioP2;P2;SDS_P1;SDS_P2;PMS_P1;PMS_P2;Temp;Humidity;BMP_temperature;BMP_pressure;BME280_temperature;BME280_humidity;BME280_pressure;Samples;Min_cycle;Max_cycle;Signal;HPM_P1;HPM_P2
2023/08/27 00:02:18;;;;;;;;;;;24.00;61.00;;;;;;5033059;28;19913;-71
2023/08/27 00:04:45;;;;;;;;;;;23.70;63.00;;;;;;5032805;28;19909;-72
2023/08/27 00:07:12;;;;;;;;;;;23.90;64.10;;;;;;5032853;28;19956;-72
2023/08/27 00:09:38;;;;;;;;;;;23.90;63.70;;;;;;5031668;28;19963;-72
2023/08/27 00:12:05;;;;;;;;;;;24.50;61.00;;;;;;5032886;28;20354;-72
2023/08/27 00:14:32;;;;;;;;;;;24.90;58.60;;;;;;5032399;28;19965;-72
2023/08/27 00:16:58;;;;;;;;;;;25.40;57.20;;;;;;5032935;28;19910;-71
2023/08/27 00:19:25;;;;;;;;;;;25.30;57.00;;;;;;5032980;28;19913;-72
2023/08/27 00:21:52;;;;;;;;;;;25.70;54.20;;;;;;5032832;28;19920;-72
2023/08/27 00:24:18;;;;;;;;;;;25.50;55.80;;;;;;5032384;28;19987;-71
2023/08/27 00:26:45;;;;;;;;;;;25.60;55.80;;;;;;5032683;28;20384;-71
2023/08/27 00:29:12;;;;;;;;;;;25.50;55.10;;;;;;5033072;28;20016;-71
2023/08/27 00:31:39;;;;;;;;;;;25.80;54.50;;;;;;5048337;28;19916;-71
2023/08/27 00:34:05;;;;;;;;;;;25.80;53.40;;;;;;5031699;28;19917;-71
2023/08/27 00:36:32;;;;;;;;;;;25.60;53.10;;;;;;5014623;28;20283;-70
2023/08/27 00:38:59;;;;;;;;;;;25.20;55.30;;;;;;5012747;28;19962;-71
2023/08/27 00:41:25;;;;;;;;;;;24.20;54.90;;;;;;5024938;28;19948;-70
2023/08/27 00:43:52;;;;;;;;;;;24.10;56.00;;;;;;5032370;28;19937;-72
2023/08/27 00:46:18;;;;;;;;;;;24.70;54.70;;;;;;5031297;28;20375;-71
2023/08/27 00:48:45;;;;;;;;;;;24.40;55.50;;;;;;5047770;28;20004;-72
2023/08/27 00:51:12;;;;;;;;;;;24.70;54.10;;;;;;5032789;28;19920;-72
2023/08/27 00:53:39;;;;;;;;;;;25.00;52.70;;;;;;5032491;28;19935;-71
2023/08/27 00:56:06;;;;;;;;;;;25.00;52.40;;;;;;5032363;28;19964;-71
2023/08/27 00:58:33;;;;;;;;;;;24.90;51.80;;;;;;5032385;28;19916;-71
2023/08/27 01:01:00;;;;;;;;;;;24.50;53.00;;;;;;5032402;28;19963;-71
2023/08/27 01:03:26;;;;;;;;;;;24.90;52.70;;;;;;5032368;28;19913;-71
2023/08/27 01:05:53;;;;;;;;;;;24.90;53.10;;;;;;5035616;28;19983;-70
2023/08/27 01:08:20;;;;;;;;;;;25.10;52.30;;;;;;5035827;28;19919;-70
2023/08/27 01:11:05;;;;;;;;;;;25.50;50.90;;;;;;5036209;28;19913;-71
2023/08/27 01:13:36;;;;;;;;;;;25.50;51.90;;;;;;5035926;28;19956;-72
2023/08/27 01:16:04;;;;;;;;;;;25.50;49.70;;;;;;5035812;28;20385;-72
2023/08/27 01:18:31;;;;;;;;;;;25.50;50.10;;;;;;5035769;28;19996;-72
2023/08/27 01:20:58;;;;;;;;;;;25.80;48.90;;;;;;5035717;28;19909;-72
2023/08/27 01:23:25;;;;;;;;;;;25.20;49.20;;;;;;5035377;28;20031;-72
2023/08/27 01:25:55;;;;;;;;;;;25.30;50.20;;;;;;5035886;28;19941;-72
2023/08/27 01:28:33;;;;;;;;;;;25.00;49.80;;;;;;5034472;28;19913;-72
2023/08/27 01:31:03;;;;;;;;;;;25.20;49.60;;;;;;5035490;28;20366;-72
2023/08/27 01:33:30;;;;;;;;;;;25.40;49.50;;;;;;5050751;28;19910;-72
2023/08/27 01:35:58;;;;;;;;;;;25.60;49.30;;;;;;5035449;28;19955;-72
2023/08/27 01:38:24;;;;;;;;;;;25.70;49.70;;;;;;5029456;28;20012;-72
2023/08/27 01:40:51;;;;;;;;;;;25.90;50.10;;;;;;5035165;28;19913;-72
2023/08/27 01:43:18;;;;;;;;;;;25.70;49.60;;;;;;5034879;28;19947;-72
2023/08/27 01:45:44;;;;;;;;;;;25.80;48.20;;;;;;5034367;28;19913;-72
2023/08/27 01:48:11;;;;;;;;;;;25.50;48.90;;;;;;5035243;28;20410;-72
2023/08/27 01:50:38;;;;;;;;;;;25.80;47.70;;;;;;5035605;28;19909;-72
2023/08/27 01:53:04;;;;;;;;;;;25.80;47.60;;;;;;5035136;28;19992;-72
2023/08/27 01:55:31;;;;;;;;;;;25.70;47.00;;;;;;5034252;28;19909;-72
2023/08/27 01:57:58;;;;;;;;;;;25.60;48.30;;;;;;5035100;28;19914;-71
2023/08/27 02:00:24;;;;;;;;;;;25.50;48.20;;;;;;5034911;28;19932;-72
2023/08/27 02:02:51;;;;;;;;;;;25.60;47.20;;;;;;5035485;28;19924;-72
2023/08/27 02:05:18;;;;;;;;;;;25.80;46.50;;;;;;5034483;28;19920;-72
2023/08/27 02:07:44;;;;;;;;;;;25.70;47.50;;;;;;5035200;28;19909;-72
2023/08/27 02:10:11;;;;;;;;;;;25.80;47.30;;;;;;5034908;28;19996;-72
2023/08/27 02:12:38;;;;;;;;;;;26.00;47.20;;;;;;5034765;28;19967;-72
2023/08/27 02:15:07;;;;;;;;;;;26.20;45.20;;;;;;5033717;28;20381;-72
2023/08/27 02:17:34;;;;;;;;;;;26.00;46.20;;;;;;5034308;28;19913;-72
2023/08/27 02:20:06;;;;;;;;;;;25.70;47.30;;;;;;5034875;28;19955;-72
2023/08/27 02:22:33;;;;;;;;;;;25.70;46.30;;;;;;5034527;28;19917;-73
2023/08/27 02:25:00;;;;;;;;;;;25.80;46.30;;;;;;5034947;28;19959;-73
2023/08/27 02:27:27;;;;;;;;;;;25.90;47.10;;;;;;5034470;28;19909;-72
2023/08/27 02:29:53;;;;;;;;;;;26.00;47.10;;;;;;5049661;28;19918;-72
2023/08/27 02:32:20;;;;;;;;;;;26.00;46.80;;;;;;5034551;28;19909;-73
2023/08/27 02:34:47;;;;;;;;;;;25.90;46.40;;;;;;5034025;28;19952;-71
2023/08/27 02:37:13;;;;;;;;;;;25.80;44.70;;;;;;5042290;28;19908;-72
2023/08/27 02:39:40;;;;;;;;;;;25.60;45.00;;;;;;5047341;28;19920;-72
2023/08/27 02:42:07;;;;;;;;;;;25.40;45.10;;;;;;5034555;28;20338;-73
2023/08/27 02:44:34;;;;;;;;;;;25.90;44.40;;;;;;5032723;28;19927;-71
2023/08/27 02:47:00;;;;;;;;;;;25.90;44.90;;;;;;5034286;28;19920;-72
2023/08/27 02:49:27;;;;;;;;;;;26.10;44.80;;;;;;5034098;28;19909;-72
2023/08/27 02:51:54;;;;;;;;;;;26.50;45.60;;;;;;5033125;28;19998;-72
2023/08/27 02:54:20;;;;;;;;;;;26.80;45.30;;;;;;5033997;28;19913;-72
2023/08/27 02:56:47;;;;;;;;;;;27.00;43.00;;;;;;5033668;28;19913;-72
2023/08/27 02:59:14;;;;;;;;;;;27.00;43.50;;;;;;5034123;28;19909;-72
2023/08/27 03:01:40;;;;;;;;;;;27.00;44.40;;;;;;5034011;28;19909;-72
2023/08/27 03:04:07;;;;;;;;;;;26.60;44.10;;;;;;5033290;28;20052;-72
2023/08/27 03:06:33;;;;;;;;;;;26.20;43.80;;;;;;5034199;28;19909;-72
2023/08/27 03:09:00;;;;;;;;;;;26.20;43.70;;;;;;5033607;28;19932;-72
2023/08/27 03:11:27;;;;;;;;;;;26.00;44.10;;;;;;5033801;28;20022;-72
2023/08/27 03:13:53;;;;;;;;;;;25.90;43.20;;;;;;5033267;28;19918;-72
2023/08/27 03:16:20;;;;;;;;;;;25.70;43.60;;;;;;5032514;28;19909;-72
2023/08/27 03:18:47;;;;;;;;;;;26.10;43.30;;;;;;5033514;28;20286;-72
2023/08/27 03:21:14;;;;;;;;;;;26.10;42.70;;;;;;5033175;28;19910;-72
2023/08/27 03:23:41;;;;;;;;;;;26.20;45.00;;;;;;5032916;28;19917;-71
2023/08/27 03:26:07;;;;;;;;;;;26.60;43.60;;;;;;5033320;28;19960;-72
2023/08/27 03:28:34;;;;;;;;;;;27.20;41.90;;;;;;5033220;28;19913;-72
2023/08/27 03:31:04;;;;;;;;;;;26.40;41.90;;;;;;5033067;28;19909;-72
2023/08/27 03:33:31;;;;;;;;;;;26.50;44.20;;;;;;5033068;28;19915;-73
2023/08/27 03:35:59;;;;;;;;;;;26.00;42.10;;;;;;5032834;28;19913;-72
2023/08/27 03:38:25;;;;;;;;;;;25.90;42.50;;;;;;5036756;28;19991;-72
2023/08/27 03:40:53;;;;;;;;;;;25.80;44.00;;;;;;5033177;28;19993;-73
2023/08/27 03:43:19;;;;;;;;;;;25.90;43.80;;;;;;5032247;28;19917;-73
2023/08/27 03:45:46;;;;;;;;;;;25.90;44.80;;;;;;5032035;28;20477;-73
2023/08/27 03:48:13;;;;;;;;;;;25.90;43.80;;;;;;5032522;28;19999;-73
2023/08/27 03:50:39;;;;;;;;;;;25.90;46.20;;;;;;5048169;28;19909;-73
2023/08/27 03:53:06;;;;;;;;;;;26.20;44.00;;;;;;5033475;28;19909;-73
2023/08/27 03:55:39;;;;;;;;;;;26.20;42.50;;;;;;5031992;28;19999;-71
2023/08/27 03:58:10;;;;;;;;;;;25.90;42.90;;;;;;5033057;28;20017;-73
2023/08/27 04:00:37;;;;;;;;;;;25.80;42.90;;;;;;5048094;28;20446;-71
2023/08/27 04:03:05;;;;;;;;;;;25.40;43.70;;;;;;5032853;28;19921;-71
2023/08/27 04:05:31;;;;;;;;;;;25.70;43.40;;;;;;5032785;28;19913;-73
2023/08/27 04:07:58;;;;;;;;;;;25.60;42.50;;;;;;5032639;28;20373;-72
2023/08/27 04:10:25;;;;;;;;;;;25.50;42.40;;;;;;5032852;28;19913;-72
2023/08/27 04:12:51;;;;;;;;;;;25.60;43.40;;;;;;5032743;28;20374;-73
2023/08/27 04:15:18;;;;;;;;;;;25.70;42.90;;;;;;5032092;28;19963;-73
2023/08/27 04:17:45;;;;;;;;;;;25.90;42.80;;;;;;5032485;28;19966;-73
2023/08/27 04:20:11;;;;;;;;;;;25.60;42.60;;;;;;5031484;28;19916;-72
2023/08/27 04:22:38;;;;;;;;;;;25.50;42.90;;;;;;5047696;28;19921;-73
2023/08/27 04:25:05;;;;;;;;;;;25.30;42.70;;;;;;5032546;28;19932;-73
2023/08/27 04:27:33;;;;;;;;;;;25.50;43.00;;;;;;5032662;28;19916;-73
2023/08/27 04:30:00;;;;;;;;;;;25.70;42.50;;;;;;5032432;28;19999;-73
2023/08/27 04:32:27;;;;;;;;;;;25.30;42.10;;;;;;5032417;28;19916;-72
2023/08/27 04:34:53;;;;;;;;;;;25.10;41.30;;;;;;5032715;28;19910;-74
2023/08/27 04:37:20;;;;;;;;;;;25.00;42.20;;;;;;5041047;28;19956;-74
2023/08/27 04:39:47;;;;;;;;;;;25.20;41.90;;;;;;5022683;28;19913;-73
2023/08/27 04:42:13;;;;;;;;;;;25.40;42.90;;;;;;5015234;28;19910;-73
2023/08/27 04:44:40;;;;;;;;;;;25.70;42.80;;;;;;5031993;28;20000;-72
2023/08/27 04:47:07;;;;;;;;;;;25.90;44.10;;;;;;5035784;28;19920;-73
2023/08/27 04:49:33;;;;;;;;;;;26.00;41.50;;;;;;5035015;28;20008;-73
2023/08/27 04:52:00;;;;;;;;;;;25.80;42.20;;;;;;5036094;28;19916;-72
2023/08/27 04:54:27;;;;;;;;;;;25.70;42.10;;;;;;5036158;28;19917;-73
2023/08/27 04:56:53;;;;;;;;;;;25.80;42.50;;;;;;5036059;28;19909;-73
2023/08/27 04:59:20;;;;;;;;;;;25.90;42.80;;;;;;5036148;28;19909;-73
2023/08/27 05:01:47;;;;;;;;;;;25.80;42.20;;;;;;5036113;28;19909;-72
2023/08/27 05:04:13;;;;;;;;;;;25.70;41.80;;;;;;5017111;28;19925;-72
2023/08/27 05:06:40;;;;;;;;;;;25.60;43.00;;;;;;5016144;28;19956;-72
2023/08/27 05:09:07;;;;;;;;;;;25.30;43.40;;;;;;5016509;28;19909;-72
2023/08/27 05:11:33;;;;;;;;;;;24.90;43.60;;;;;;5016058;28;19914;-72
2023/08/27 05:14:00;;;;;;;;;;;24.90;44.60;;;;;;5032967;28;19909;-72
2023/08/27 05:16:27;;;;;;;;;;;24.70;43.50;;;;;;5035647;28;19909;-73
2023/08/27 05:18:54;;;;;;;;;;;24.30;44.80;;;;;;5035867;28;20014;-72
2023/08/27 05:21:24;;;;;;;;;;;24.40;46.80;;;;;;5035416;28;19963;-72
2023/08/27 05:23:52;;;;;;;;;;;24.40;47.50;;;;;;5035198;28;19921;-72
2023/08/27 05:26:19;;;;;;;;;;;24.50;46.70;;;;;;5034099;28;19928;-72
2023/08/27 05:28:46;;;;;;;;;;;24.40;47.60;;;;;;5033813;28;19956;-73
2023/08/27 05:31:12;;;;;;;;;;;24.30;47.50;;;;;;5035424;28;19964;-72
2023/08/27 05:33:39;;;;;;;;;;;24.30;48.20;;;;;;5035505;28;20322;-73
2023/08/27 05:36:05;;;;;;;;;;;24.10;47.30;;;;;;5035079;28;19936;-72
2023/08/27 05:38:32;;;;;;;;;;;24.30;47.30;;;;;;5034864;28;19913;-73
2023/08/27 05:40:59;;;;;;;;;;;24.30;47.10;;;;;;5035207;28;20250;-73
2023/08/27 05:43:26;;;;;;;;;;;24.30;48.40;;;;;;5034682;28;19917;-73
2023/08/27 05:45:52;;;;;;;;;;;24.20;48.50;;;;;;5035137;28;19924;-73
2023/08/27 05:48:19;;;;;;;;;;;24.10;49.10;;;;;;5034906;28;20369;-72
2023/08/27 05:50:46;;;;;;;;;;;23.90;49.30;;;;;;5035164;28;20377;-72
2023/08/27 05:53:14;;;;;;;;;;;23.40;49.30;;;;;;5034868;28;19968;-72
2023/08/27 05:55:40;;;;;;;;;;;23.20;50.30;;;;;;5032650;28;20282;-72
2023/08/27 05:58:07;;;;;;;;;;;23.10;51.90;;;;;;5034817;28;19909;-73
2023/08/27 06:00:33;;;;;;;;;;;22.80;52.70;;;;;;5035077;28;19936;-73
2023/08/27 06:03:00;;;;;;;;;;;22.60;54.00;;;;;;5033562;28;19917;-73
2023/08/27 06:05:27;;;;;;;;;;;22.50;55.70;;;;;;5034124;28;19909;-73
2023/08/27 06:07:53;;;;;;;;;;;22.40;57.50;;;;;;5034817;28;19909;-73
2023/08/27 06:10:20;;;;;;;;;;;22.10;58.50;;;;;;5034391;28;19916;-73
2023/08/27 06:12:47;;;;;;;;;;;22.10;59.00;;;;;;5050170;28;19909;-74
2023/08/27 06:15:14;;;;;;;;;;;22.00;59.90;;;;;;5034690;28;19916;-72
2023/08/27 06:17:40;;;;;;;;;;;21.90;60.60;;;;;;5049914;28;19949;-72
2023/08/27 06:20:07;;;;;;;;;;;21.90;61.30;;;;;;5034303;28;19971;-72
2023/08/27 06:22:34;;;;;;;;;;;21.80;61.80;;;;;;5033081;28;19936;-73
2023/08/27 06:25:01;;;;;;;;;;;21.60;62.20;;;;;;5033944;28;19916;-73
2023/08/27 06:27:27;;;;;;;;;;;21.60;62.70;;;;;;5034207;28;20290;-73
2023/08/27 06:29:54;;;;;;;;;;;21.50;62.40;;;;;;5034780;28;19968;-73
2023/08/27 06:32:21;;;;;;;;;;;21.50;62.50;;;;;;5034335;28;20007;-73
2023/08/27 06:34:47;;;;;;;;;;;21.40;62.90;;;;;;5034415;28;20334;-73
2023/08/27 06:37:14;;;;;;;;;;;21.30;63.20;;;;;;5026962;28;19920;-72
2023/08/27 06:39:41;;;;;;;;;;;21.20;63.50;;;;;;5033470;28;19909;-73
2023/08/27 06:42:07;;;;;;;;;;;21.20;63.90;;;;;;5034342;28;19951;-73
2023/08/27 06:44:34;;;;;;;;;;;21.10;64.20;;;;;;5033062;28;20358;-73
2023/08/27 06:47:00;;;;;;;;;;;21.00;63.70;;;;;;5033755;28;19969;-73
2023/08/27 06:49:27;;;;;;;;;;;21.00;64.00;;;;;;5034098;28;19909;-73
2023/08/27 06:51:54;;;;;;;;;;;20.80;64.20;;;;;;5034151;28;20279;-73
2023/08/27 06:54:20;;;;;;;;;;;20.70;64.40;;;;;;5033054;28;19909;-73
2023/08/27 06:56:47;;;;;;;;;;;20.70;65.20;;;;;;5034141;28;20004;-73
2023/08/27 06:59:14;;;;;;;;;;;20.70;65.10;;;;;;5033959;28;19913;-72
2023/08/27 07:01:41;;;;;;;;;;;20.70;65.40;;;;;;5033109;28;19909;-72
2023/08/27 07:04:07;;;;;;;;;;;20.70;65.60;;;;;;5033382;28;19964;-73
2023/08/27 07:06:34;;;;;;;;;;;20.70;65.40;;;;;;5033497;28;20425;-73
2023/08/27 07:09:01;;;;;;;;;;;20.70;64.90;;;;;;5033756;28;19996;-73
2023/08/27 07:11:28;;;;;;;;;;;20.60;65.50;;;;;;5048744;28;19910;-72
2023/08/27 07:13:54;;;;;;;;;;;20.50;65.50;;;;;;5033476;28;20244;-72
2023/08/27 07:16:21;;;;;;;;;;;20.50;65.90;;;;;;5033473;28;19913;-72
2023/08/27 07:18:48;;;;;;;;;;;20.50;65.90;;;;;;5048465;28;20020;-72
2023/08/27 07:21:14;;;;;;;;;;;20.40;66.10;;;;;;5033530;28;19916;-72
2023/08/27 07:23:41;;;;;;;;;;;20.20;66.40;;;;;;5031848;28;20298;-72
2023/08/27 07:26:08;;;;;;;;;;;20.20;66.90;;;;;;5033289;28;19909;-72
2023/08/27 07:28:34;;;;;;;;;;;20.10;67.10;;;;;;5033524;28;19954;-72
2023/08/27 07:31:01;;;;;;;;;;;20.00;67.60;;;;;;5032150;28;20354;-73
2023/08/27 07:33:28;;;;;;;;;;;19.80;68.30;;;;;;5033239;28;19909;-72
2023/08/27 07:35:54;;;;;;;;;;;19.80;68.50;;;;;;5032833;28;20058;-73
2023/08/27 07:38:22;;;;;;;;;;;19.60;68.90;;;;;;5033078;28;19917;-72
2023/08/27 07:40:50;;;;;;;;;;;19.50;69.10;;;;;;5033240;28;19909;-72
2023/08/27 07:43:17;;;;;;;;;;;19.40;69.00;;;;;;5032909;28;19964;-72
2023/08/27 07:45:43;;;;;;;;;;;19.40;69.00;;;;;;5032011;28;20078;-73
2023/08/27 07:48:10;;;;;;;;;;;19.30;69.20;;;;;;5032744;28;19909;-72
2023/08/27 07:50:38;;;;;;;;;;;19.30;69.50;;;;;;5033299;28;19917;-72
2023/08/27 07:53:05;;;;;;;;;;;19.20;69.70;;;;;;5032830;28;19910;-73
2023/08/27 07:55:34;;;;;;;;;;;19.00;70.00;;;;;;5032625;28;19913;-72
2023/08/27 07:58:01;;;;;;;;;;;18.90;70.80;;;;;;5032904;28;20358;-72
2023/08/27 08:00:27;;;;;;;;;;;18.70;71.70;;;;;;5032892;28;19917;-73
2023/08/27 08:02:54;;;;;;;;;;;18.60;72.50;;;;;;5032495;28;20374;-72
2023/08/27 08:05:21;;;;;;;;;;;18.60;72.60;;;;;;5031430;28;20004;-72
2023/08/27 08:07:49;;;;;;;;;;;18.60;73.00;;;;;;5032970;28;19948;-72
2023/08/27 08:10:16;;;;;;;;;;;18.50;73.40;;;;;;5022041;28;19910;-72
2023/08/27 08:12:43;;;;;;;;;;;18.50;74.00;;;;;;5011678;28;19971;-72
2023/08/27 08:15:10;;;;;;;;;;;18.40;74.50;;;;;;5030958;28;19915;-72
2023/08/27 08:17:37;;;;;;;;;;;18.40;74.80;;;;;;5017004;28;20410;-72
2023/08/27 08:20:05;;;;;;;;;;;18.30;75.10;;;;;;5026850;28;20374;-72
2023/08/27 08:22:31;;;;;;;;;;;18.30;75.60;;;;;;5036884;28;19909;-72
2023/08/27 08:24:58;;;;;;;;;;;18.30;75.80;;;;;;5036758;28;20285;-72
2023/08/27 08:27:25;;;;;;;;;;;18.20;76.40;;;;;;5036655;28;19913;-71
2023/08/27 08:29:51;;;;;;;;;;;18.20;76.60;;;;;;5036844;28;19957;-73
2023/08/27 08:32:18;;;;;;;;;;;18.10;77.20;;;;;;5037277;28;19920;-72
2023/08/27 08:34:45;;;;;;;;;;;18.10;77.70;;;;;;5036413;28;19909;-72
2023/08/27 08:37:12;;;;;;;;;;;18.10;77.90;;;;;;5029662;28;19909;-71
2023/08/27 08:39:38;;;;;;;;;;;18.00;78.50;;;;;;5037002;28;20004;-72
2023/08/27 08:42:05;;;;;;;;;;;18.00;79.20;;;;;;5035273;28;19913;-72
2023/08/27 08:44:32;;;;;;;;;;;17.90;79.40;;;;;;5035622;28;20244;-72
2023/08/27 08:46:59;;;;;;;;;;;17.90;79.80;;;;;;5036307;28;19955;-72
2023/08/27 08:49:27;;;;;;;;;;;17.80;80.40;;;;;;5036606;28;19913;-72
2023/08/27 08:51:56;;;;;;;;;;;17.70;81.10;;;;;;5036389;28;19920;-71
2023/08/27 08:54:24;;;;;;;;;;;17.70;81.80;;;;;;5034480;28;19917;-72
2023/08/27 08:56:53;;;;;;;;;;;17.70;81.80;;;;;;5036301;28;19921;-72
2023/08/27 08:59:22;;;;;;;;;;;17.70;82.20;;;;;;5036120;28;19960;-72
2023/08/27 09:01:49;;;;;;;;;;;17.60;82.50;;;;;;5034676;28;19916;-72
2023/08/27 09:04:16;;;;;;;;;;;17.50;83.20;;;;;;5035962;28;19928;-72
2023/08/27 09:06:42;;;;;;;;;;;17.30;84.60;;;;;;5036019;28;19920;-71
2023/08/27 09:09:09;;;;;;;;;;;17.30;84.90;;;;;;5036049;28;19916;-72
2023/08/27 09:11:37;;;;;;;;;;;17.20;85.30;;;;;;5034305;28;19921;-72
2023/08/27 09:14:04;;;;;;;;;;;17.10;86.10;;;;;;5051066;28;19913;-73
2023/08/27 09:16:31;;;;;;;;;;;17.00;87.30;;;;;;5035867;28;19909;-72
2023/08/27 09:18:58;;;;;;;;;;;17.00;87.60;;;;;;5035730;28;19909;-72
2023/08/27 09:21:25;;;;;;;;;;;17.00;88.20;;;;;;5035669;28;19909;-72
2023/08/27 09:23:52;;;;;;;;;;;17.10;88.00;;;;;;5034846;28;20432;-73
2023/08/27 09:26:20;;;;;;;;;;;17.10;87.90;;;;;;5034750;28;20012;-72
2023/08/27 09:28:47;;;;;;;;;;;17.10;88.30;;;;;;5034961;28;19953;-72
2023/08/27 09:31:33;;;;;;;;;;;17.10;88.70;;;;;;5035370;28;19916;-71
2023/08/27 09:34:00;;;;;;;;;;;17.10;88.50;;;;;;5034930;28;19956;-72
2023/08/27 09:36:27;;;;;;;;;;;17.00;88.30;;;;;;5034396;28;19932;-71
2023/08/27 09:38:53;;;;;;;;;;;16.80;89.40;;;;;;5033379;28;20293;-72
2023/08/27 09:41:23;;;;;;;;;;;16.60;90.20;;;;;;5034920;28;19909;-72
2023/08/27 09:43:54;;;;;;;;;;;16.50;90.50;;;;;;5034058;28;20355;-71
2023/08/27 09:46:20;;;;;;;;;;;16.50;90.90;;;;;;5034052;28;20347;-72
2023/08/27 09:48:58;;;;;;;;;;;16.40;90.90;;;;;;5049119;28;19967;-72
2023/08/27 09:51:24;;;;;;;;;;;16.40;90.90;;;;;;5034275;28;19913;-71
2023/08/27 09:53:51;;;;;;;;;;;16.30;91.30;;;;;;5034647;28;19909;-72
2023/08/27 09:56:18;;;;;;;;;;;16.30;91.60;;;;;;5034963;28;19913;-72
2023/08/27 09:58:45;;;;;;;;;;;16.40;91.70;;;;;;5034360;28;19909;-72
2023/08/27 10:01:12;;;;;;;;;;;16.30;91.80;;;;;;5034298;28;19959;-73
2023/08/27 10:03:39;;;;;;;;;;;16.30;91.90;;;;;;5034011;28;19992;-70
2023/08/27 10:06:06;;;;;;;;;;;16.10;92.30;;;;;;5034551;28;20247;-73
2023/08/27 10:08:32;;;;;;;;;;;16.10;92.30;;;;;;5034152;28;20378;-71
2023/08/27 10:11:10;;;;;;;;;;;16.00;92.60;;;;;;5034535;28;19963;-72
2023/08/27 10:13:37;;;;;;;;;;;15.90;92.90;;;;;;5032723;28;20354;-72
2023/08/27 10:16:04;;;;;;;;;;;15.90;92.90;;;;;;5033971;28;19913;-72
2023/08/27 10:18:32;;;;;;;;;;;15.80;93.30;;;;;;5033980;28;20007;-72
2023/08/27 10:20:59;;;;;;;;;;;15.80;93.20;;;;;;5034251;28;19959;-72
2023/08/27 10:23:27;;;;;;;;;;;15.70;93.30;;;;;;5034108;28;19921;-72
2023/08/27 10:25:54;;;;;;;;;;;15.70;93.50;;;;;;5033687;28;19916;-71
2023/08/27 10:28:21;;;;;;;;;;;15.60;93.80;;;;;;5034228;28;19920;-71
2023/08/27 10:30:48;;;;;;;;;;;15.60;94.00;;;;;;5033717;28;19980;-72
2023/08/27 10:33:17;;;;;;;;;;;15.60;93.60;;;;;;5032378;28;19967;-71
2023/08/27 10:35:45;;;;;;;;;;;15.50;93.50;;;;;;5025696;28;19920;-71
2023/08/27 10:38:13;;;;;;;;;;;15.40;93.60;;;;;;5032907;28;19996;-71
2023/08/27 10:40:43;;;;;;;;;;;15.30;93.80;;;;;;5033728;28;19959;-72
2023/08/27 10:43:19;;;;;;;;;;;15.30;93.80;;;;;;5033201;28;19924;-72
2023/08/27 10:45:47;;;;;;;;;;;15.20;93.90;;;;;;5033342;28;20286;-72
2023/08/27 10:48:17;;;;;;;;;;;15.10;94.00;;;;;;5033515;28;19916;-74
2023/08/27 10:50:49;;;;;;;;;;;15.10;94.00;;;;;;5033613;28;20004;-72
2023/08/27 10:53:16;;;;;;;;;;;15.00;94.10;;;;;;5032969;28;19954;-71
2023/08/27 10:55:53;;;;;;;;;;;15.00;94.40;;;;;;5033189;28;19936;-72
2023/08/27 10:58:23;;;;;;;;;;;14.80;94.50;;;;;;5032058;28;19916;-72
2023/08/27 11:01:04;;;;;;;;;;;14.80;94.70;;;;;;5033210;28;19913;-72
2023/08/27 11:03:57;;;;;;;;;;;14.80;94.70;;;;;;5032983;28;19913;-72
2023/08/27 11:06:33;;;;;;;;;;;14.80;94.40;;;;;;5030895;28;19917;-71
2023/08/27 11:09:00;;;;;;;;;;;14.70;94.40;;;;;;5033038;28;19956;-72
2023/08/27 11:11:27;;;;;;;;;;;14.60;94.80;;;;;;5033030;28;19916;-72
2023/08/27 11:14:08;;;;;;;;;;;14.60;94.60;;;;;;5032827;28;19979;-72
2023/08/27 11:16:45;;;;;;;;;;;14.50;94.50;;;;;;5032556;28;19988;-71
2023/08/27 11:19:11;;;;;;;;;;;14.40;94.70;;;;;;5048098;28;19913;-72
2023/08/27 11:21:38;;;;;;;;;;;14.40;94.80;;;;;;5031877;28;19960;-71
2023/08/27 11:24:18;;;;;;;;;;;14.30;94.70;;;;;;5032759;28;20008;-72
2023/08/27 11:26:47;;;;;;;;;;;14.20;94.50;;;;;;5032570;28;19992;-72
2023/08/27 11:29:14;;;;;;;;;;;14.20;94.50;;;;;;5032578;28;19928;-72
2023/08/27 11:31:43;;;;;;;;;;;14.10;94.60;;;;;;5032821;28;19913;-72
2023/08/27 11:34:13;;;;;;;;;;;14.00;94.70;;;;;;5032240;28;19920;-72
2023/08/27 11:36:45;;;;;;;;;;;13.90;94.90;;;;;;5033072;28;19913;-71
2023/08/27 11:39:15;;;;;;;;;;;13.90;94.90;;;;;;5031040;28;19959;-72
2023/08/27 11:41:45;;;;;;;;;;;13.80;94.90;;;;;;5031549;28;19909;-72
2023/08/27 11:44:12;;;;;;;;;;;13.80;95.00;;;;;;5032706;28;20021;-72
2023/08/27 11:46:41;;;;;;;;;;;13.80;95.10;;;;;;5033193;28;19916;-71
2023/08/27 11:49:12;;;;;;;;;;;13.70;95.50;;;;;;5033034;28;20401;-72
2023/08/27 11:51:42;;;;;;;;;;;13.60;96.00;;;;;;5031404;28;20329;-72
2023/08/27 11:54:10;;;;;;;;;;;13.60;96.00;;;;;;5032814;28;19909;-72
2023/08/27 11:56:37;;;;;;;;;;;13.60;95.90;;;;;;5033003;28;20015;-72
2023/08/27 11:59:04;;;;;;;;;;;13.60;95.50;;;;;;5032892;28;19962;-72
2023/08/27 12:01:32;;;;;;;;;;;13.50;95.60;;;;;;5032798;28;19968;-72
2023/08/27 12:03:59;;;;;;;;;;;13.50;95.80;;;;;;5031318;28;20302;-70
2023/08/27 12:06:28;;;;;;;;;;;13.40;96.00;;;;;;5032715;28;20256;-71
2023/08/27 12:08:55;;;;;;;;;;;13.40;96.10;;;;;;5032470;28;19913;-71
2023/08/27 12:11:26;;;;;;;;;;;13.40;96.00;;;;;;5032896;28;20012;-71
2023/08/27 12:14:00;;;;;;;;;;;13.40;95.80;;;;;;5032602;28;19921;-71
2023/08/27 12:16:30;;;;;;;;;;;13.30;95.80;;;;;;5032670;28;19909;-71
2023/08/27 12:19:03;;;;;;;;;;;13.30;95.90;;;;;;5032476;28;20367;-71
2023/08/27 12:21:46;;;;;;;;;;;13.20;96.00;;;;;;5048085;28;19909;-70
2023/08/27 12:24:31;;;;;;;;;;;13.20;96.00;;;;;;5032484;28;19925;-71
2023/08/27 12:27:02;;;;;;;;;;;13.20;96.10;;;;;;5032615;28;20279;-71
2023/08/27 12:29:29;;;;;;;;;;;13.10;96.10;;;;;;5032536;28;19909;-71
2023/08/27 12:31:56;;;;;;;;;;;13.10;96.10;;;;;;5032761;28;19909;-72
2023/08/27 12:34:34;;;;;;;;;;;13.10;96.30;;;;;;5038717;28;20317;-72
2023/08/27 12:37:00;;;;;;;;;;;13.00;96.20;;;;;;5032598;28;19909;-71
2023/08/27 12:39:27;;;;;;;;;;;13.00;96.30;;;;;;5032556;28;19909;-71
2023/08/27 12:41:54;;;;;;;;;;;12.90;96.50;;;;;;5032160;28;19917;-72
2023/08/27 12:44:20;;;;;;;;;;;12.90;96.70;;;;;;5030634;28;19925;-72
2023/08/27 12:46:47;;;;;;;;;;;12.90;96.60;;;;;;5031904;28;19959;-71
2023/08/27 12:49:14;;;;;;;;;;;12.90;96.90;;;;;;5031692;28;19913;-72
2023/08/27 12:51:45;;;;;;;;;;;12.90;96.80;;;;;;5029022;28;20271;-72
2023/08/27 12:54:12;;;;;;;;;;;12.90;96.90;;;;;;5031605;28;19956;-71
2023/08/27 12:56:38;;;;;;;;;;;12.90;97.00;;;;;;5031801;28;20386;-71
2023/08/27 12:59:05;;;;;;;;;;;12.70;96.80;;;;;;5031819;28;20342;-72
2023/08/27 13:01:32;;;;;;;;;;;12.70;96.80;;;;;;5034664;28;19917;-72
2023/08/27 13:03:59;;;;;;;;;;;12.70;97.10;;;;;;5034225;28;20355;-71
2023/08/27 13:06:28;;;;;;;;;;;12.90;96.90;;;;;;5034505;28;19916;-71
2023/08/27 13:08:55;;;;;;;;;;;12.90;96.90;;;;;;5033895;28;20251;-71
2023/08/27 13:11:22;;;;;;;;;;;12.80;96.70;;;;;;5033894;28;20285;-71
2023/08/27 13:13:50;;;;;;;;;;;12.80;96.70;;;;;;5034090;28;19915;-71
2023/08/27 13:16:17;;;;;;;;;;;12.80;96.60;;;;;;5034045;28;20437;-71
2023/08/27 13:18:45;;;;;;;;;;;12.70;96.80;;;;;;5035814;28;20342;-72
2023/08/27 13:21:11;;;;;;;;;;;12.70;97.00;;;;;;5035807;28;20389;-71
2023/08/27 13:23:38;;;;;;;;;;;12.70;97.20;;;;;;5035392;28;19917;-71
2023/08/27 13:26:04;;;;;;;;;;;12.70;97.40;;;;;;5035736;28;19909;-71
2023/08/27 13:28:31;;;;;;;;;;;12.80;97.50;;;;;;5035784;28;19913;-72
2023/08/27 13:30:58;;;;;;;;;;;12.80;97.50;;;;;;5035760;28;20015;-72
2023/08/27 13:33:24;;;;;;;;;;;12.80;97.60;;;;;;5038442;28;19909;-71
2023/08/27 13:35:51;;;;;;;;;;;12.90;97.70;;;;;;5055424;28;19974;-71
2023/08/27 13:38:18;;;;;;;;;;;12.90;97.60;;;;;;5055540;28;19916;-71
2023/08/27 13:40:45;;;;;;;;;;;13.20;97.70;;;;;;5055560;28;19952;-71
2023/08/27 13:43:11;;;;;;;;;;;13.40;97.80;;;;;;5044227;28;19960;-71
2023/08/27 13:45:39;;;;;;;;;;;13.60;97.50;;;;;;5032830;28;20271;-72
2023/08/27 13:48:05;;;;;;;;;;;13.40;97.70;;;;;;5035253;28;19920;-71
2023/08/27 13:50:32;;;;;;;;;;;13.30;97.70;;;;;;5032914;28;20290;-71
2023/08/27 13:52:59;;;;;;;;;;;13.20;97.70;;;;;;5035059;28;19909;-72
2023/08/27 13:55:25;;;;;;;;;;;13.10;97.70;;;;;;5034238;28;20390;-72
2023/08/27 13:57:52;;;;;;;;;;;13.00;97.50;;;;;;5034969;28;19909;-71
2023/08/27 14:00:19;;;;;;;;;;;12.80;97.60;;;;;;5034920;28;19963;-71
2023/08/27 14:02:45;;;;;;;;;;;12.60;97.60;;;;;;5035044;28;19916;-71
2023/08/27 14:05:12;;;;;;;;;;;12.60;98.10;;;;;;5034468;28;20381;-71
2023/08/27 14:07:39;;;;;;;;;;;12.60;98.10;;;;;;5034571;28;19935;-72
2023/08/27 14:10:06;;;;;;;;;;;12.60;98.30;;;;;;5035186;28;19982;-72
2023/08/27 14:12:32;;;;;;;;;;;12.60;98.40;;;;;;5033837;28;19996;-72
2023/08/27 14:14:59;;;;;;;;;;;12.70;98.40;;;;;;5034297;28;19920;-72
2023/08/27 14:17:26;;;;;;;;;;;12.60;98.40;;;;;;5034532;28;19916;-72
2023/08/27 14:19:52;;;;;;;;;;;12.60;98.40;;;;;;5034634;28;19916;-71